sensor_id;sensor_type;location;lat;lon;timestamp;temperature;humidity
7159;DHT22;63175;52.374;13.132;2022-12-10T00:01:25;0.30;99.90
7159;DHT22;63175;52.374;13.132;2022-12-10T00:03:53;0.30;99.90
7159;DHT22;63175;52.374;13.132;2022-12-10T00:06:21;0.30;99.90
7159;DHT22;63175;52.374;13.132;2022-12-10T00:08:49;0.30;99.90
7159;DHT22;63175;52.374;13.132;2022-12-10T00:11:18;0.30;99.90
7159;DHT22;63175;52.374;13.132;2022-12-10T00:13:47;0.30;99.90
7159;DHT22;63175;52.374;13.132;2022-12-10T00:16:16;0.30;99.90
7159;DHT22;63175;52.374;13.132;2022-12-10T00:18:43;0.30;99.90
7159;DHT22;63175;52.374;13.132;2022-12-10T00:21:12;0.30;99.90
7159;DHT22;63175;52.374;13.132;2022-12-10T00:23:39;0.30;99.90
7159;DHT22;63175;52.374;13.132;2022-12-10T00:26:11;0.30;99.90
7159;DHT22;63175;52.374;13.132;2022-12-10T00:28:38;0.30;99.90
7159;DHT22;63175;52.374;13.132;2022-12-10T00:31:08;0.30;99.90
7159;DHT22;63175;52.374;13.132;2022-12-10T00:33:36;0.30;99.90
7159;DHT22;63175;52.374;13.132;2022-12-10T00:36:04;0.30;99.90
7159;DHT22;63175;52.374;13.132;2022-12-10T00:38:31;0.30;99.90
7159;DHT22;63175;52.374;13.132;2022-12-10T00:40:58;0.30;99.90
7159;DHT22;63175;52.374;13.132;2022-12-10T00:43:25;0.30;99.90
7159;DHT22;63175;52.374;13.132;2022-12-10T00:45:52;0.30;99.90
7159;DHT22;63175;52.374;13.132;2022-12-10T00:48:20;0.30;99.90
7159;DHT22;63175;52.374;13.132;2022-12-10T00:50:55;0.30;99.90
7159;DHT22;63175;52.374;13.132;2022-12-10T00:53:23;0.30;99.90
7159;DHT22;63175;52.374;13.132;2022-12-10T00:55:50;0.30;99.90
7159;DHT22;63175;52.374;13.132;2022-12-10T00:58:17;0.30;99.90
7159;DHT22;63175;52.374;13.132;2022-12-10T01:00:44;0.30;99.90
7159;DHT22;63175;52.374;13.132;2022-12-10T01:03:11;0.30;99.90
7159;DHT22;63175;52.374;13.132;2022-12-10T01:05:39;0.30;99.90
7159;DHT22;63175;52.374;13.132;2022-12-10T01:08:06;0.30;99.90
7159;DHT22;63175;52.374;13.132;2022-12-10T01:10:33;0.30;99.90
7159;DHT22;63175;52.374;13.132;2022-12-10T01:13:00;0.30;99.90
7159;DHT22;63175;52.374;13.132;2022-12-10T01:15:27;0.30;99.90
7159;DHT22;63175;52.374;13.132;2022-12-10T01:17:54;0.30;99.90
7159;DHT22;63175;52.374;13.132;2022-12-10T01:20:20;0.30;99.90
7159;DHT22;63175;52.374;13.132;2022-12-10T01:22:48;0.30;99.90
7159;DHT22;63175;52.374;13.132;2022-12-10T01:25:15;0.30;99.90
7159;DHT22;63175;52.374;13.132;2022-12-10T01:27:42;0.20;99.90
7159;DHT22;63175;52.374;13.132;2022-12-10T01:30:10;0.30;99.90
7159;DHT22;63175;52.374;13.132;2022-12-10T01:32:37;0.30;99.90
7159;DHT22;63175;52.374;13.132;2022-12-10T01:35:04;0.30;99.90
7159;DHT22;63175;52.374;13.132;2022-12-10T01:37:32;0.30;99.90
7159;DHT22;63175;52.374;13.132;2022-12-10T01:40:00;0.30;99.90
7159;DHT22;63175;52.374;13.132;2022-12-10T01:42:27;0.20;99.90
7159;DHT22;63175;52.374;13.132;2022-12-10T01:45:04;0.30;99.90
7159;DHT22;63175;52.374;13.132;2022-12-10T01:47:31;0.20;99.90
7159;DHT22;63175;52.374;13.132;2022-12-10T01:49:58;0.20;99.90
7159;DHT22;63175;52.374;13.132;2022-12-10T01:52:26;0.20;99.90
7159;DHT22;63175;52.374;13.132;2022-12-10T01:54:53;0.20;99.90
7159;DHT22;63175;52.374;13.132;2022-12-10T01:57:23;0.20;99.90
7159;DHT22;63175;52.374;13.132;2022-12-10T01:59:53;0.20;99.90
7159;DHT22;63175;52.374;13.132;2022-12-10T02:02:28;0.20;99.90
7159;DHT22;63175;52.374;13.132;2022-12-10T02:05:07;0.20;99.90
7159;DHT22;63175;52.374;13.132;2022-12-10T02:07:42;0.20;99.90
7159;DHT22;63175;52.374;13.132;2022-12-10T02:10:19;0.20;99.90
7159;DHT22;63175;52.374;13.132;2022-12-10T02:12:55;0.20;99.90
7159;DHT22;63175;52.374;13.132;2022-12-10T02:15:26;0.20;99.90
7159;DHT22;63175;52.374;13.132;2022-12-10T02:17:56;0.20;99.90
7159;DHT22;63175;52.374;13.132;2022-12-10T02:20:28;0.20;99.90
7159;DHT22;63175;52.374;13.132;2022-12-10T02:23:01;0.20;99.90
7159;DHT22;63175;52.374;13.132;2022-12-10T02:25:36;0.20;99.90
7159;DHT22;63175;52.374;13.132;2022-12-10T02:28:12;0.20;99.90
7159;DHT22;63175;52.374;13.132;2022-12-10T02:30:42;0.20;99.90
7159;DHT22;63175;52.374;13.132;2022-12-10T02:33:11;0.20;99.90
7159;DHT22;63175;52.374;13.132;2022-12-10T02:35:41;0.20;99.90
7159;DHT22;63175;52.374;13.132;2022-12-10T02:38:11;0.20;99.90
7159;DHT22;63175;52.374;13.132;2022-12-10T02:40:42;0.20;99.90
7159;DHT22;63175;52.374;13.132;2022-12-10T02:43:12;0.20;99.90
7159;DHT22;63175;52.374;13.132;2022-12-10T02:45:41;0.20;99.90
7159;DHT22;63175;52.374;13.132;2022-12-10T02:48:09;0.10;99.90
7159;DHT22;63175;52.374;13.132;2022-12-10T02:50:37;0.10;99.90
7159;DHT22;63175;52.374;13.132;2022-12-10T02:53:04;0.10;99.90
7159;DHT22;63175;52.374;13.132;2022-12-10T02:55:41;0.10;99.90
7159;DHT22;63175;52.374;13.132;2022-12-10T02:58:17;0.10;99.90
7159;DHT22;63175;52.374;13.132;2022-12-10T03:00:53;0.10;99.90
7159;DHT22;63175;52.374;13.132;2022-12-10T03:03:31;0.10;99.90
7159;DHT22;63175;52.374;13.132;2022-12-10T03:06:04;0.10;99.90
7159;DHT22;63175;52.374;13.132;2022-12-10T03:08:36;0.20;99.90
7159;DHT22;63175;52.374;13.132;2022-12-10T03:11:10;0.20;99.90
7159;DHT22;63175;52.374;13.132;2022-12-10T03:13:44;0.20;99.90
7159;DHT22;63175;52.374;13.132;2022-12-10T03:16:14;0.20;99.90
7159;DHT22;63175;52.374;13.132;2022-12-10T03:18:42;0.20;99.90
7159;DHT22;63175;52.374;13.132;2022-12-10T03:21:11;0.20;99.90
7159;DHT22;63175;52.374;13.132;2022-12-10T03:23:42;0.20;99.90
7159;DHT22;63175;52.374;13.132;2022-12-10T03:26:11;0.10;99.90
7159;DHT22;63175;52.374;13.132;2022-12-10T03:28:41;0.10;99.90
7159;DHT22;63175;52.374;13.132;2022-12-10T03:31:10;0.20;99.90
7159;DHT22;63175;52.374;13.132;2022-12-10T03:33:40;0.20;99.90
7159;DHT22;63175;52.374;13.132;2022-12-10T03:36:08;0.20;99.90
7159;DHT22;63175;52.374;13.132;2022-12-10T03:38:36;0.20;99.90
7159;DHT22;63175;52.374;13.132;2022-12-10T03:41:04;0.20;99.90
7159;DHT22;63175;52.374;13.132;2022-12-10T03:43:31;0.20;99.90
7159;DHT22;63175;52.374;13.132;2022-12-10T03:45:58;0.20;99.90
7159;DHT22;63175;52.374;13.132;2022-12-10T03:48:24;0.20;99.90
7159;DHT22;63175;52.374;13.132;2022-12-10T03:50:53;0.10;99.90
7159;DHT22;63175;52.374;13.132;2022-12-10T03:53:19;0.20;99.90
7159;DHT22;63175;52.374;13.132;2022-12-10T03:55:46;0.20;99.90
7159;DHT22;63175;52.374;13.132;2022-12-10T03:58:13;0.20;99.90
7159;DHT22;63175;52.374;13.132;2022-12-10T04:00:40;0.20;99.90
7159;DHT22;63175;52.374;13.132;2022-12-10T04:03:07;0.20;99.90
7159;DHT22;63175;52.374;13.132;2022-12-10T04:05:33;0.20;99.90
7159;DHT22;63175;52.374;13.132;2022-12-10T04:08:01;0.20;99.90
7159;DHT22;63175;52.374;13.132;2022-12-10T04:10:28;0.20;99.90
7159;DHT22;63175;52.374;13.132;2022-12-10T04:12:55;0.10;99.90
7159;DHT22;63175;52.374;13.132;2022-12-10T04:15:38;0.10;99.90
7159;DHT22;63175;52.374;13.132;2022-12-10T04:18:22;0.10;99.90
7159;DHT22;63175;52.374;13.132;2022-12-10T04:20:49;0.10;99.90
7159;DHT22;63175;52.374;13.132;2022-12-10T04:23:35;0.10;99.90
7159;DHT22;63175;52.374;13.132;2022-12-10T04:26:16;0.10;99.90
7159;DHT22;63175;52.374;13.132;2022-12-10T04:29:00;0.10;99.90
7159;DHT22;63175;52.374;13.132;2022-12-10T04:31:27;0.10;99.90
7159;DHT22;63175;52.374;13.132;2022-12-10T04:33:54;0.10;99.90
7159;DHT22;63175;52.374;13.132;2022-12-10T04:36:21;0.10;99.90
7159;DHT22;63175;52.374;13.132;2022-12-10T04:38:49;0.10;99.90
7159;DHT22;63175;52.374;13.132;2022-12-10T04:41:16;0.10;99.90
7159;DHT22;63175;52.374;13.132;2022-12-10T04:43:43;0.10;99.90
7159;DHT22;63175;52.374;13.132;2022-12-10T04:46:10;0.10;99.90
7159;DHT22;63175;52.374;13.132;2022-12-10T04:48:37;0.10;99.90
7159;DHT22;63175;52.374;13.132;2022-12-10T04:51:04;0.10;99.90
7159;DHT22;63175;52.374;13.132;2022-12-10T04:53:31;0.10;99.90
7159;DHT22;63175;52.374;13.132;2022-12-10T04:55:59;0.10;99.90
7159;DHT22;63175;52.374;13.132;2022-12-10T04:58:26;0.10;99.90
7159;DHT22;63175;52.374;13.132;2022-12-10T05:01:01;0.10;99.90
7159;DHT22;63175;52.374;13.132;2022-12-10T05:03:27;0.10;99.90
7159;DHT22;63175;52.374;13.132;2022-12-10T05:05:54;0.10;99.90
7159;DHT22;63175;52.374;13.132;2022-12-10T05:08:21;0.10;99.90
7159;DHT22;63175;52.374;13.132;2022-12-10T05:10:48;0.10;99.90
7159;DHT22;63175;52.374;13.132;2022-12-10T05:13:16;0.10;99.90
7159;DHT22;63175;52.374;13.132;2022-12-10T05:15:43;0.10;99.90
7159;DHT22;63175;52.374;13.132;2022-12-10T05:18:10;0.20;99.90
7159;DHT22;63175;52.374;13.132;2022-12-10T05:20:37;0.10;99.90
7159;DHT22;63175;52.374;13.132;2022-12-10T05:23:04;0.10;99.90
7159;DHT22;63175;52.374;13.132;2022-12-10T05:25:48;0.20;99.90
7159;DHT22;63175;52.374;13.132;2022-12-10T05:28:21;0.20;99.90
7159;DHT22;63175;52.374;13.132;2022-12-10T05:30:48;0.20;99.90
7159;DHT22;63175;52.374;13.132;2022-12-10T05:33:15;0.20;99.90
7159;DHT22;63175;52.374;13.132;2022-12-10T05:35:41;0.20;99.90
7159;DHT22;63175;52.374;13.132;2022-12-10T05:38:08;0.20;99.90
7159;DHT22;63175;52.374;13.132;2022-12-10T05:40:36;0.20;99.90
7159;DHT22;63175;52.374;13.132;2022-12-10T05:43:03;0.20;99.90
7159;DHT22;63175;52.374;13.132;2022-12-10T05:45:33;0.20;99.90
7159;DHT22;63175;52.374;13.132;2022-12-10T05:47:59;0.20;99.90
7159;DHT22;63175;52.374;13.132;2022-12-10T05:50:27;0.20;99.90
7159;DHT22;63175;52.374;13.132;2022-12-10T05:52:54;0.20;99.90
7159;DHT22;63175;52.374;13.132;2022-12-10T05:55:21;0.20;99.90
7159;DHT22;63175;52.374;13.132;2022-12-10T05:57:47;0.20;99.90
7159;DHT22;63175;52.374;13.132;2022-12-10T06:00:15;0.20;99.90
7159;DHT22;63175;52.374;13.132;2022-12-10T06:02:43;0.20;99.90
7159;DHT22;63175;52.374;13.132;2022-12-10T06:05:10;0.20;99.90
7159;DHT22;63175;52.374;13.132;2022-12-10T06:07:37;0.20;99.90
7159;DHT22;63175;52.374;13.132;2022-12-10T06:10:04;0.20;99.90
7159;DHT22;63175;52.374;13.132;2022-12-10T06:12:31;0.20;99.90
7159;DHT22;63175;52.374;13.132;2022-12-10T06:14:58;0.20;99.90
7159;DHT22;63175;52.374;13.132;2022-12-10T06:17:25;0.20;99.90
7159;DHT22;63175;52.374;13.132;2022-12-10T06:19:53;0.20;99.90
7159;DHT22;63175;52.374;13.132;2022-12-10T06:22:20;0.20;99.90
7159;DHT22;63175;52.374;13.132;2022-12-10T06:24:47;0.20;99.90
7159;DHT22;63175;52.374;13.132;2022-12-10T06:27:14;0.20;99.90
7159;DHT22;63175;52.374;13.132;2022-12-10T06:29:41;0.20;99.90
7159;DHT22;63175;52.374;13.132;2022-12-10T06:32:08;0.20;99.90
7159;DHT22;63175;52.374;13.132;2022-12-10T06:34:35;0.20;99.90
7159;DHT22;63175;52.374;13.132;2022-12-10T06:37:03;0.20;99.90
7159;DHT22;63175;52.374;13.132;2022-12-10T06:39:30;0.20;99.90
7159;DHT22;63175;52.374;13.132;2022-12-10T06:41:57;0.20;99.90
7159;DHT22;63175;52.374;13.132;2022-12-10T06:44:23;0.20;99.90
7159;DHT22;63175;52.374;13.132;2022-12-10T06:46:50;0.20;99.90
7159;DHT22;63175;52.374;13.132;2022-12-10T06:49:17;0.20;99.90
7159;DHT22;63175;52.374;13.132;2022-12-10T06:51:44;0.10;99.90
7159;DHT22;63175;52.374;13.132;2022-12-10T06:54:12;0.10;99.90
7159;DHT22;63175;52.374;13.132;2022-12-10T06:56:39;0.10;99.90
7159;DHT22;63175;52.374;13.132;2022-12-10T06:59:06;0.10;99.90
7159;DHT22;63175;52.374;13.132;2022-12-10T07:01:33;0.10;99.90
7159;DHT22;63175;52.374;13.132;2022-12-10T07:03:59;0.10;99.90
7159;DHT22;63175;52.374;13.132;2022-12-10T07:06:27;0.10;99.90
7159;DHT22;63175;52.374;13.132;2022-12-10T07:08:54;0.10;99.90
7159;DHT22;63175;52.374;13.132;2022-12-10T07:11:23;0.10;99.90
7159;DHT22;63175;52.374;13.132;2022-12-10T07:13:51;0.10;99.90
7159;DHT22;63175;52.374;13.132;2022-12-10T07:16:19;0.10;99.90
7159;DHT22;63175;52.374;13.132;2022-12-10T07:18:47;0.00;99.90
7159;DHT22;63175;52.374;13.132;2022-12-10T07:21:15;0.00;99.90
7159;DHT22;63175;52.374;13.132;2022-12-10T07:23:42;0.00;99.90
7159;DHT22;63175;52.374;13.132;2022-12-10T07:26:09;0.10;99.90
7159;DHT22;63175;52.374;13.132;2022-12-10T07:28:37;0.00;99.90
7159;DHT22;63175;52.374;13.132;2022-12-10T07:31:06;0.10;99.90
7159;DHT22;63175;52.374;13.132;2022-12-10T07:33:34;0.10;99.90
7159;DHT22;63175;52.374;13.132;2022-12-10T07:36:04;0.10;99.90
7159;DHT22;63175;52.374;13.132;2022-12-10T07:38:31;0.00;99.90
7159;DHT22;63175;52.374;13.132;2022-12-10T07:40:58;0.00;99.90
7159;DHT22;63175;52.374;13.132;2022-12-10T07:43:24;0.00;99.90
7159;DHT22;63175;52.374;13.132;2022-12-10T07:45:52;0.00;99.90
7159;DHT22;63175;52.374;13.132;2022-12-10T07:48:19;0.00;99.90
7159;DHT22;63175;52.374;13.132;2022-12-10T07:50:47;0.00;99.90
7159;DHT22;63175;52.374;13.132;2022-12-10T07:53:13;0.00;99.90
7159;DHT22;63175;52.374;13.132;2022-12-10T07:55:40;0.00;99.90
7159;DHT22;63175;52.374;13.132;2022-12-10T07:58:07;0.00;99.90
7159;DHT22;63175;52.374;13.132;2022-12-10T08:00:34;0.00;99.90
7159;DHT22;63175;52.374;13.132;2022-12-10T08:03:03;0.00;99.90
7159;DHT22;63175;52.374;13.132;2022-12-10T08:05:30;0.00;99.90
7159;DHT22;63175;52.374;13.132;2022-12-10T08:07:56;0.00;99.90
7159;DHT22;63175;52.374;13.132;2022-12-10T08:10:23;0.00;99.90
7159;DHT22;63175;52.374;13.132;2022-12-10T08:12:50;0.10;99.90
7159;DHT22;63175;52.374;13.132;2022-12-10T08:15:17;0.10;99.90
7159;DHT22;63175;52.374;13.132;2022-12-10T08:17:44;0.10;99.90
7159;DHT22;63175;52.374;13.132;2022-12-10T08:20:12;0.10;99.90
7159;DHT22;63175;52.374;13.132;2022-12-10T08:22:39;0.10;99.90
7159;DHT22;63175;52.374;13.132;2022-12-10T08:25:06;0.10;99.90
7159;DHT22;63175;52.374;13.132;2022-12-10T08:27:33;0.10;99.90
7159;DHT22;63175;52.374;13.132;2022-12-10T08:30:00;0.10;99.90
7159;DHT22;63175;52.374;13.132;2022-12-10T08:32:27;0.20;99.90
7159;DHT22;63175;52.374;13.132;2022-12-10T08:34:54;0.20;99.90
7159;DHT22;63175;52.374;13.132;2022-12-10T08:37:22;0.20;99.90
7159;DHT22;63175;52.374;13.132;2022-12-10T08:39:49;0.20;99.90
7159;DHT22;63175;52.374;13.132;2022-12-10T08:42:16;0.20;99.90
7159;DHT22;63175;52.374;13.132;2022-12-10T08:44:42;0.20;99.90
7159;DHT22;63175;52.374;13.132;2022-12-10T08:47:09;0.20;99.90
7159;DHT22;63175;52.374;13.132;2022-12-10T08:49:36;0.20;99.90
7159;DHT22;63175;52.374;13.132;2022-12-10T08:52:03;0.20;99.90
7159;DHT22;63175;52.374;13.132;2022-12-10T08:54:31;0.30;99.90
7159;DHT22;63175;52.374;13.132;2022-12-10T08:56:58;0.30;99.90
7159;DHT22;63175;52.374;13.132;2022-12-10T08:59:25;0.30;99.90
7159;DHT22;63175;52.374;13.132;2022-12-10T09:01:52;0.30;99.90
7159;DHT22;63175;52.374;13.132;2022-12-10T09:04:19;0.30;99.90
7159;DHT22;63175;52.374;13.132;2022-12-10T09:06:45;0.30;99.90
7159;DHT22;63175;52.374;13.132;2022-12-10T09:09:12;0.30;99.90
7159;DHT22;63175;52.374;13.132;2022-12-10T09:11:41;0.30;99.90
7159;DHT22;63175;52.374;13.132;2022-12-10T09:14:09;0.30;99.90
7159;DHT22;63175;52.374;13.132;2022-12-10T09:16:36;0.30;99.90
7159;DHT22;63175;52.374;13.132;2022-12-10T09:19:05;0.30;99.90
7159;DHT22;63175;52.374;13.132;2022-12-10T09:21:32;0.30;99.90
7159;DHT22;63175;52.374;13.132;2022-12-10T09:23:59;0.30;99.90
7159;DHT22;63175;52.374;13.132;2022-12-10T09:26:26;0.30;99.90
7159;DHT22;63175;52.374;13.132;2022-12-10T09:28:54;0.40;99.90
7159;DHT22;63175;52.374;13.132;2022-12-10T09:31:23;0.40;99.90
7159;DHT22;63175;52.374;13.132;2022-12-10T09:33:52;0.40;99.90
7159;DHT22;63175;52.374;13.132;2022-12-10T09:36:20;0.40;99.90
7159;DHT22;63175;52.374;13.132;2022-12-10T09:38:47;0.40;99.90
7159;DHT22;63175;52.374;13.132;2022-12-10T09:41:33;0.40;99.90
7159;DHT22;63175;52.374;13.132;2022-12-10T09:44:08;0.40;99.90
7159;DHT22;63175;52.374;13.132;2022-12-10T09:46:45;0.40;99.90
7159;DHT22;63175;52.374;13.132;2022-12-10T09:49:22;0.40;99.90
7159;DHT22;63175;52.374;13.132;2022-12-10T09:51:50;0.50;99.90
7159;DHT22;63175;52.374;13.132;2022-12-10T09:54:25;0.50;99.90
7159;DHT22;63175;52.374;13.132;2022-12-10T09:56:54;0.50;99.90
7159;DHT22;63175;52.374;13.132;2022-12-10T09:59:25;0.50;99.90
7159;DHT22;63175;52.374;13.132;2022-12-10T10:02:03;0.50;99.90
7159;DHT22;63175;52.374;13.132;2022-12-10T10:04:31;0.50;99.90
7159;DHT22;63175;52.374;13.132;2022-12-10T10:06:58;0.50;99.90
7159;DHT22;63175;52.374;13.132;2022-12-10T10:09:25;0.50;99.90
7159;DHT22;63175;52.374;13.132;2022-12-10T10:11:53;0.60;99.90
7159;DHT22;63175;52.374;13.132;2022-12-10T10:14:27;0.60;99.90
7159;DHT22;63175;52.374;13.132;2022-12-10T10:16:59;0.60;99.90
7159;DHT22;63175;52.374;13.132;2022-12-10T10:19:28;0.60;99.90
7159;DHT22;63175;52.374;13.132;2022-12-10T10:21:56;0.60;99.90
7159;DHT22;63175;52.374;13.132;2022-12-10T10:24:28;0.60;99.90
7159;DHT22;63175;52.374;13.132;2022-12-10T10:27:04;0.70;99.90
7159;DHT22;63175;52.374;13.132;2022-12-10T10:29:38;0.70;99.90
7159;DHT22;63175;52.374;13.132;2022-12-10T10:32:14;0.70;99.90
7159;DHT22;63175;52.374;13.132;2022-12-10T10:34:43;0.70;99.90
7159;DHT22;63175;52.374;13.132;2022-12-10T10:37:15;0.70;99.90
7159;DHT22;63175;52.374;13.132;2022-12-10T10:39:47;0.70;99.90
7159;DHT22;63175;52.374;13.132;2022-12-10T10:42:25;0.70;99.90
7159;DHT22;63175;52.374;13.132;2022-12-10T10:44:53;0.70;99.90
7159;DHT22;63175;52.374;13.132;2022-12-10T10:47:26;0.70;99.90
7159;DHT22;63175;52.374;13.132;2022-12-10T10:49:53;0.80;99.90
7159;DHT22;63175;52.374;13.132;2022-12-10T10:52:20;0.80;99.90
7159;DHT22;63175;52.374;13.132;2022-12-10T10:54:47;0.80;99.90
7159;DHT22;63175;52.374;13.132;2022-12-10T10:57:19;0.90;99.90
7159;DHT22;63175;52.374;13.132;2022-12-10T10:59:49;0.90;99.90
7159;DHT22;63175;52.374;13.132;2022-12-10T11:02:22;0.90;99.90
7159;DHT22;63175;52.374;13.132;2022-12-10T11:04:51;0.90;99.90
7159;DHT22;63175;52.374;13.132;2022-12-10T11:07:24;0.90;99.90
7159;DHT22;63175;52.374;13.132;2022-12-10T11:09:53;1.00;99.90
7159;DHT22;63175;52.374;13.132;2022-12-10T11:12:27;1.00;99.90
7159;DHT22;63175;52.374;13.132;2022-12-10T11:14:55;1.00;99.90
7159;DHT22;63175;52.374;13.132;2022-12-10T11:17:24;1.00;99.90
7159;DHT22;63175;52.374;13.132;2022-12-10T11:19:56;1.00;99.90
7159;DHT22;63175;52.374;13.132;2022-12-10T11:22:25;1.00;99.90
7159;DHT22;63175;52.374;13.132;2022-12-10T11:24:52;1.00;99.90
7159;DHT22;63175;52.374;13.132;2022-12-10T11:27:35;1.10;99.90
7159;DHT22;63175;52.374;13.132;2022-12-10T11:30:05;1.10;99.90
7159;DHT22;63175;52.374;13.132;2022-12-10T11:32:47;1.10;99.90
7159;DHT22;63175;52.374;13.132;2022-12-10T11:35:23;1.10;99.90
7159;DHT22;63175;52.374;13.132;2022-12-10T11:37:59;1.10;99.90
7159;DHT22;63175;52.374;13.132;2022-12-10T11:40:40;1.10;99.90
7159;DHT22;63175;52.374;13.132;2022-12-10T11:43:35;1.10;99.90
7159;DHT22;63175;52.374;13.132;2022-12-10T11:46:16;1.10;99.90
7159;DHT22;63175;52.374;13.132;2022-12-10T11:48:55;1.20;99.90
7159;DHT22;63175;52.374;13.132;2022-12-10T11:51:30;1.20;99.90
7159;DHT22;63175;52.374;13.132;2022-12-10T11:54:11;1.20;99.90
7159;DHT22;63175;52.374;13.132;2022-12-10T11:56:44;1.20;99.90
7159;DHT22;63175;52.374;13.132;2022-12-10T11:59:23;1.20;99.90
7159;DHT22;63175;52.374;13.132;2022-12-10T12:02:03;1.20;99.90
7159;DHT22;63175;52.374;13.132;2022-12-10T12:04:53;1.20;99.90
7159;DHT22;63175;52.374;13.132;2022-12-10T12:07:33;1.20;99.90
7159;DHT22;63175;52.374;13.132;2022-12-10T12:10:26;1.20;99.90
7159;DHT22;63175;52.374;13.132;2022-12-10T12:13:03;1.20;99.90
7159;DHT22;63175;52.374;13.132;2022-12-10T12:15:33;1.20;99.90
7159;DHT22;63175;52.374;13.132;2022-12-10T12:18:05;1.20;99.90
7159;DHT22;63175;52.374;13.132;2022-12-10T12:20:39;1.20;99.90
7159;DHT22;63175;52.374;13.132;2022-12-10T12:23:14;1.20;99.90
7159;DHT22;63175;52.374;13.132;2022-12-10T12:25:45;1.20;99.90
7159;DHT22;63175;52.374;13.132;2022-12-10T12:28:19;1.20;99.90
7159;DHT22;63175;52.374;13.132;2022-12-10T12:30:51;1.20;99.90
7159;DHT22;63175;52.374;13.132;2022-12-10T12:33:25;1.20;99.90
7159;DHT22;63175;52.374;13.132;2022-12-10T12:35:58;1.20;99.90
7159;DHT22;63175;52.374;13.132;2022-12-10T12:38:29;1.20;99.90
7159;DHT22;63175;52.374;13.132;2022-12-10T12:41:00;1.20;99.90
7159;DHT22;63175;52.374;13.132;2022-12-10T12:43:37;1.20;99.90
7159;DHT22;63175;52.374;13.132;2022-12-10T12:46:18;1.20;99.90
7159;DHT22;63175;52.374;13.132;2022-12-10T12:48:51;1.10;99.90
7159;DHT22;63175;52.374;13.132;2022-12-10T12:51:25;1.10;99.90
7159;DHT22;63175;52.374;13.132;2022-12-10T12:53:53;1.10;99.90
7159;DHT22;63175;52.374;13.132;2022-12-10T12:56:25;1.20;99.90
7159;DHT22;63175;52.374;13.132;2022-12-10T12:59:04;1.20;99.90
7159;DHT22;63175;52.374;13.132;2022-12-10T13:01:37;1.20;99.90
7159;DHT22;63175;52.374;13.132;2022-12-10T13:04:06;1.20;99.90
7159;DHT22;63175;52.374;13.132;2022-12-10T13:06:36;1.20;99.90
7159;DHT22;63175;52.374;13.132;2022-12-10T13:09:24;1.20;99.90
7159;DHT22;63175;52.374;13.132;2022-12-10T13:12:18;1.20;99.90
7159;DHT22;63175;52.374;13.132;2022-12-10T13:15:00;1.20;99.90
7159;DHT22;63175;52.374;13.132;2022-12-10T13:17:31;1.20;99.90
7159;DHT22;63175;52.374;13.132;2022-12-10T13:20:31;1.20;99.90
7159;DHT22;63175;52.374;13.132;2022-12-10T13:23:01;1.20;99.90
7159;DHT22;63175;52.374;13.132;2022-12-10T13:25:56;1.20;99.90
7159;DHT22;63175;52.374;13.132;2022-12-10T13:28:29;1.10;99.90
7159;DHT22;63175;52.374;13.132;2022-12-10T13:31:19;1.10;99.90
7159;DHT22;63175;52.374;13.132;2022-12-10T13:33:50;1.10;99.90
7159;DHT22;63175;52.374;13.132;2022-12-10T13:36:33;1.10;99.90
7159;DHT22;63175;52.374;13.132;2022-12-10T13:39:22;1.20;99.90
7159;DHT22;63175;52.374;13.132;2022-12-10T13:42:25;1.10;99.90
7159;DHT22;63175;52.374;13.132;2022-12-10T13:45:26;1.10;99.90
7159;DHT22;63175;52.374;13.132;2022-12-10T13:47:55;1.10;99.90
7159;DHT22;63175;52.374;13.132;2022-12-10T13:50:45;1.10;99.90
7159;DHT22;63175;52.374;13.132;2022-12-10T13:53:21;1.10;99.90
7159;DHT22;63175;52.374;13.132;2022-12-10T13:56:00;1.10;99.90
7159;DHT22;63175;52.374;13.132;2022-12-10T13:58:39;1.10;99.90
7159;DHT22;63175;52.374;13.132;2022-12-10T14:01:13;1.10;99.90
7159;DHT22;63175;52.374;13.132;2022-12-10T14:03:51;1.10;99.90
7159;DHT22;63175;52.374;13.132;2022-12-10T14:06:23;1.10;99.90
7159;DHT22;63175;52.374;13.132;2022-12-10T14:08:55;1.10;99.90
7159;DHT22;63175;52.374;13.132;2022-12-10T14:11:28;1.10;99.90
7159;DHT22;63175;52.374;13.132;2022-12-10T14:13:56;1.00;99.90
7159;DHT22;63175;52.374;13.132;2022-12-10T14:16:26;1.00;99.90
7159;DHT22;63175;52.374;13.132;2022-12-10T14:18:57;1.10;99.90
7159;DHT22;63175;52.374;13.132;2022-12-10T14:21:25;1.00;99.90
7159;DHT22;63175;52.374;13.132;2022-12-10T14:23:53;1.00;99.90
7159;DHT22;63175;52.374;13.132;2022-12-10T14:26:21;1.00;99.90
7159;DHT22;63175;52.374;13.132;2022-12-10T14:28:54;1.00;99.90
7159;DHT22;63175;52.374;13.132;2022-12-10T14:31:26;1.00;99.90
7159;DHT22;63175;52.374;13.132;2022-12-10T14:33:57;1.00;99.90
7159;DHT22;63175;52.374;13.132;2022-12-10T14:36:28;1.00;99.90
7159;DHT22;63175;52.374;13.132;2022-12-10T14:38:55;1.00;99.90
7159;DHT22;63175;52.374;13.132;2022-12-10T14:41:23;0.90;99.90
7159;DHT22;63175;52.374;13.132;2022-12-10T14:43:52;0.90;99.90
7159;DHT22;63175;52.374;13.132;2022-12-10T14:46:22;1.00;99.90
7159;DHT22;63175;52.374;13.132;2022-12-10T14:48:50;0.90;99.90
7159;DHT22;63175;52.374;13.132;2022-12-10T14:51:19;0.90;99.90
7159;DHT22;63175;52.374;13.132;2022-12-10T14:53:47;0.90;99.90
7159;DHT22;63175;52.374;13.132;2022-12-10T14:56:20;0.90;99.90
7159;DHT22;63175;52.374;13.132;2022-12-10T14:58:52;0.90;99.90
7159;DHT22;63175;52.374;13.132;2022-12-10T15:01:27;0.90;99.90
7159;DHT22;63175;52.374;13.132;2022-12-10T15:03:56;0.90;99.90
7159;DHT22;63175;52.374;13.132;2022-12-10T15:06:24;0.90;99.90
7159;DHT22;63175;52.374;13.132;2022-12-10T15:08:54;0.90;99.90
7159;DHT22;63175;52.374;13.132;2022-12-10T15:11:21;0.90;99.90
7159;DHT22;63175;52.374;13.132;2022-12-10T15:13:50;0.80;99.90
7159;DHT22;63175;52.374;13.132;2022-12-10T15:16:28;0.90;99.90
7159;DHT22;63175;52.374;13.132;2022-12-10T15:18:55;0.80;99.90
7159;DHT22;63175;52.374;13.132;2022-12-10T15:21:40;0.90;99.90
7159;DHT22;63175;52.374;13.132;2022-12-10T15:24:16;0.80;99.90
7159;DHT22;63175;52.374;13.132;2022-12-10T15:26:45;0.80;99.90
7159;DHT22;63175;52.374;13.132;2022-12-10T15:29:34;0.80;99.90
7159;DHT22;63175;52.374;13.132;2022-12-10T15:32:06;0.80;99.90
7159;DHT22;63175;52.374;13.132;2022-12-10T15:34:38;0.80;99.90
7159;DHT22;63175;52.374;13.132;2022-12-10T15:37:16;0.80;99.90
7159;DHT22;63175;52.374;13.132;2022-12-10T15:39:46;0.80;99.90
7159;DHT22;63175;52.374;13.132;2022-12-10T15:42:29;0.80;99.90
7159;DHT22;63175;52.374;13.132;2022-12-10T15:44:59;0.80;99.90
7159;DHT22;63175;52.374;13.132;2022-12-10T15:47:28;0.80;99.90
7159;DHT22;63175;52.374;13.132;2022-12-10T15:49:56;0.80;99.90
7159;DHT22;63175;52.374;13.132;2022-12-10T15:52:24;0.80;99.90
7159;DHT22;63175;52.374;13.132;2022-12-10T15:54:53;0.80;99.90
7159;DHT22;63175;52.374;13.132;2022-12-10T15:57:22;0.80;99.90
7159;DHT22;63175;52.374;13.132;2022-12-10T15:59:50;0.80;99.90
7159;DHT22;63175;52.374;13.132;2022-12-10T16:02:29;0.80;99.90
7159;DHT22;63175;52.374;13.132;2022-12-10T16:05:01;0.80;99.90
7159;DHT22;63175;52.374;13.132;2022-12-10T16:07:28;0.70;99.90